Latest Weather Observations for Cummins Airport

IDS60801

Issued at 9:31 am CST Saturday 27 May 2017 (issued every 30 minutes, with the page automatically refreshed every 10 minutes)

About weather observations | Map of weather stations | Latest weather observations for SA | Other Formats
Station Details ID: 018217 Name: CUMMINS AERO Lat: -34.25 Lon: 135.71 Height: 60.11 m
Data from the previous 72 hours. | See also: Recent months at Cummins Airport
Date/Time
CST
Temp
°C
App
Temp
°C
Dew
Point
°C
Rel
Hum
%
Delta-T
°C
Wind Press
QNH
hPa
Press
MSL
hPa
Rain since
9am
mm
Dir  Spd
km/h
Gust
km/h
Spd
kts
Gust
kts
27/09:30am 15.9 13.0 13.0 83 1.6 NNW 20 26 11 14 1013.5 1013.4 0.0
27/09:00am 14.7 11.7 12.4 86 1.3 NNW 20 28 11 15 1013.8 1013.7 0.2
27/08:30am 13.1 10.6 11.0 87 1.1 NNW 15 20 8 11 1013.9 1013.8 0.2
27/08:00am 10.2 7.7 8.1 87 1.0 N 11 17 6 9 1013.9 1013.8 0.2
27/07:30am 9.7 6.7 7.8 88 0.9 NNW 13 17 7 9 1013.9 1013.8 0.2
27/07:00am 8.8 5.8 6.1 83 1.2 NNW 11 13 6 7 1013.6 1013.5 0.2
27/06:30am 9.6 6.2 6.1 79 1.6 NNW 13 17 7 9 1013.5 1013.4 0.2
27/06:00am 10.5 6.5 6.5 76 1.9 NNW 17 20 9 11 1013.4 1013.3 0.2
27/05:30am 10.9 6.9 6.5 74 2.1 N 17 24 9 13 1013.2 1013.1 0.2
27/05:00am 9.3 6.3 6.2 81 1.4 N 11 13 6 7 1013.2 1013.1 0.2
27/04:30am 8.9 5.8 5.5 79 1.5 NNE 11 13 6 7 1013.3 1013.2 0.2
27/04:00am 9.7 7.0 5.5 75 1.9 NNE 9 11 5 6 1013.5 1013.4 0.2
27/03:30am 10.1 8.7 5.7 74 2.0 NNE 2 7 1 4 1013.6 1013.5 0.2
27/03:00am 10.9 7.9 6.1 72 2.2 W 11 17 6 9 1013.9 1013.8 0.2
27/02:30am 12.6 9.2 5.8 63 3.2 NW 13 20 7 11 1013.6 1013.5 0.2
27/02:00am 12.8 10.0 7.0 68 2.8 NNE 11 17 6 9 1013.4 1013.3 0.2
27/01:30am 11.0 7.9 5.7 70 2.5 NE 11 13 6 7 1013.8 1013.7 0.2
27/01:00am 10.6 7.6 5.8 72 2.2 NE 11 13 6 7 1014.2 1014.1 0.2
27/12:30am 10.7 8.0 5.7 71 2.3 NE 9 11 5 6 1014.6 1014.5 0.2
27/12:00am 10.4 7.3 5.6 72 2.2 NE 11 11 6 6 1014.8 1014.7 0.2
 
Date/Time
CST
Temp
°C
App
Temp
°C
Dew
Point
°C
Rel
Hum
%
Delta-T
°C
Wind Press
QNH
hPa
Press
MSL
hPa
Rain since
9am
mm
Dir  Spd
km/h
Gust
km/h
Spd
kts
Gust
kts
26/11:30pm 10.7 7.6 5.7 71 2.3 NE 11 15 6 8 1015.1 1015.0 0.2
26/11:00pm 10.1 6.9 5.3 72 2.2 NE 11 13 6 7 1015.3 1015.2 0.2
26/10:30pm 9.4 5.8 4.8 73 2.1 NNE 13 15 7 8 1015.7 1015.6 0.2
26/10:00pm 9.5 6.3 4.9 73 2.1 NE 11 13 6 7 1016.0 1015.9 0.2
26/09:30pm 9.3 6.4 4.9 74 2.0 NNE 9 13 5 7 1016.1 1016.0 0.2
26/09:00pm 8.3 5.2 3.8 73 1.9 NE 9 11 5 6 1016.0 1015.9 0.2
26/08:30pm 8.4 7.0 3.5 71 2.1 CALM 0 0 0 0 1016.1 1016.0 0.2
26/08:00pm 9.0 7.6 3.8 70 2.3 CALM 0 0 0 0 1016.2 1016.1 0.2
26/07:30pm 9.4 8.0 3.8 68 2.4 CALM 0 0 0 0 1016.3 1016.2 0.2
26/07:00pm 11.3 10.1 4.5 63 3.1 CALM 0 0 0 0 1016.3 1016.2 0.2
26/06:30pm 13.6 12.7 6.0 60 3.6 CALM 0 0 0 0 1016.3 1016.2 0.2
26/06:00pm 15.4 14.5 6.2 54 4.5 CALM 0 0 0 0 1016.2 1016.1 0.2
26/05:30pm 16.7 14.1 6.2 50 5.1 W 9 11 5 6 1016.2 1016.1 0.2
26/05:00pm 19.0 15.0 6.5 44 6.3 W 17 20 9 11 1016.3 1016.2 0.2
26/04:30pm 20.4 16.0 6.7 41 6.9 W 19 22 10 12 1016.5 1016.4 0.2
26/04:00pm 21.0 16.6 7.3 41 7.0 WNW 20 28 11 15 1016.5 1016.4 0.2
26/03:30pm 21.6 17.2 7.4 40 7.3 WNW 20 30 11 16 1016.5 1016.4 0.2
26/03:00pm 21.8 17.0 5.7 35 8.1 NW 20 28 11 15 1016.6 1016.5 0.2
26/02:30pm 22.1 16.6 5.9 35 8.2 NNW 24 33 13 18 1016.7 1016.6 0.2
26/02:00pm 22.0 17.2 7.4 39 7.6 NNW 22 35 12 19 1017.1 1017.0 0.2
26/01:30pm 21.4 16.7 7.6 41 7.1 NNW 22 30 12 16 1017.6 1017.6 0.2
26/01:00pm 21.2 17.1 8.8 45 6.6 NNW 20 26 11 14 1018.1 1018.1 0.2
26/12:30pm 20.7 16.4 9.3 48 6.1 N 22 30 12 16 1018.4 1018.4 0.2
26/12:00pm 19.1 15.3 9.9 55 4.9 N 20 24 11 13 1019.2 1019.2 0.2
26/11:30am 18.4 15.5 11.0 62 4.0 N 17 22 9 12 1019.9 1019.9 0.0
26/11:00am 15.1 15.4 15.1 100 0.0 NNE 7 13 4 7 1020.5 1020.5 0.0
26/10:30am 12.5 12.0 12.5 100 0.0 NNE 7 11 4 6 1021.0 1021.0 0.0
26/10:00am 11.3 10.6 11.3 100 0.0 NNE 6 9 3 5 1021.3 1021.3 0.0
26/09:30am 10.5 9.4 10.5 100 0.0 NE 7 9 4 5 1021.4 1021.4 0.0
26/09:00am 10.1 8.5 10.1 100 0.0 N 9 13 5 7 1021.7 1021.7 0.0
26/08:30am 10.0 10.1 10.0 100 0.0 CALM 0 9 0 5 1021.6 1021.6 0.0
26/08:00am 9.8 9.8 9.8 100 0.0 CALM 0 0 0 0 1021.7 1021.7 0.0
26/07:30am 9.5 9.4 9.5 100 0.0 CALM 0 0 0 0 1021.6 1021.6 0.0
26/07:00am 9.3 7.8 9.3 100 0.0 NE 7 11 4 6 1021.4 1021.4 0.0
26/06:30am 9.2 7.9 9.2 100 0.0 ENE 6 7 3 4 1021.3 1021.3 0.0
26/06:00am 9.2 7.9 9.2 100 0.0 NNE 6 7 3 4 1021.2 1021.2 0.0
26/05:30am 8.9 7.5 8.9 100 0.0 NE 6 7 3 4 1021.1 1021.1 0.0
26/05:00am 7.6 5.7 7.6 100 0.0 NNE 7 11 4 6 1021.1 1021.1 0.0
26/04:30am 6.8 4.0 6.8 100 0.0 N 11 13 6 7 1021.1 1021.1 0.0
26/04:00am 5.0 3.9 4.9 99 0.0 CALM 0 0 0 0 1021.2 1021.2 0.0
26/03:30am 4.5 3.3 4.4 99 0.0 CALM 0 0 0 0 1021.1 1021.1 0.0
26/03:00am 5.6 4.6 5.6 100 0.0 CALM 0 0 0 0 1021.2 1021.2 0.0
26/02:30am 5.8 4.8 5.8 100 0.0 CALM 0 0 0 0 1021.2 1021.2 0.0
26/02:00am 6.2 5.3 6.1 99 0.0 CALM 0 0 0 0 1021.4 1021.4 0.0
26/01:30am 6.8 4.7 6.7 99 0.0 NNE 7 11 4 6 1021.4 1021.4 0.0
26/01:00am 6.5 5.7 6.4 99 0.0 CALM 0 0 0 0 1021.6 1021.6 0.0
26/12:30am 8.3 7.9 8.2 99 0.0 CALM 0 0 0 0 1021.9 1021.9 0.0
26/12:00am 8.3 6.7 8.2 99 0.0 NE 6 7 3 4 1022.0 1022.0 0.0
 
Date/Time
CST
Temp
°C
App
Temp
°C
Dew
Point
°C
Rel
Hum
%
Delta-T
°C
Wind Press
QNH
hPa
Press
MSL
hPa
Rain since
9am
mm
Dir  Spd
km/h
Gust
km/h
Spd
kts
Gust
kts
25/11:30pm 9.6 9.5 9.3 98 0.1 CALM 0 0 0 0 1022.2 1022.2 0.0
25/11:00pm 10.5 10.6 10.0 97 0.3 CALM 0 0 0 0 1022.4 1022.4 0.0
25/10:30pm 12.0 12.4 11.2 95 0.4 CALM 0 0 0 0 1022.5 1022.5 0.0
25/10:00pm 12.4 12.9 11.6 95 0.4 CALM 0 0 0 0 1022.5 1022.5 0.0
25/09:30pm 12.6 12.1 12.0 96 0.3 N 6 7 3 4 1022.5 1022.5 0.0
25/09:00pm 12.8 12.4 12.3 97 0.3 NE 6 7 3 4 1022.4 1022.4 0.0
25/08:30pm 12.5 12.0 12.2 98 0.2 NE 6 9 3 5 1022.3 1022.3 0.0
25/08:00pm 12.0 12.5 11.5 97 0.3 CALM 0 0 0 0 1022.1 1022.1 0.0
25/07:30pm 13.3 13.3 12.4 94 0.5 SSE 4 7 2 4 1022.1 1022.1 0.0
25/07:00pm 13.8 14.2 12.4 91 0.8 SSE 2 6 1 3 1022.0 1022.0 0.0
25/06:30pm 15.1 13.9 12.8 86 1.3 W 11 13 6 7 1021.9 1021.9 0.0
25/06:00pm 14.6 12.7 11.7 83 1.6 W 13 15 7 8 1021.4 1021.4 0.0
25/05:30pm 16.3 14.7 12.8 80 1.9 WSW 13 17 7 9 1021.2 1021.2 0.0
25/05:00pm 17.2 14.3 12.9 76 2.4 W 20 26 11 14 1021.0 1021.0 0.0
25/04:30pm 18.0 15.2 13.3 74 2.7 W 20 26 11 14 1020.6 1020.6 0.0
25/04:00pm 18.3 14.3 13.0 71 3.0 W 26 35 14 19 1020.7 1020.7 0.0
25/03:30pm 18.7 15.5 13.1 70 3.2 W 22 30 12 16 1020.6 1020.6 0.0
25/03:00pm 19.2 15.5 12.7 66 3.6 W 24 30 13 16 1020.5 1020.5 0.0
25/02:30pm 19.0 13.9 11.8 63 4.0 W 30 39 16 21 1020.6 1020.6 0.0
25/02:00pm 20.0 16.0 13.0 64 4.0 WNW 26 35 14 19 1020.7 1020.7 0.0
25/01:30pm 19.3 14.5 11.8 62 4.1 WNW 28 35 15 19 1021.1 1021.1 0.0
25/01:00pm 19.2 14.5 12.0 63 4.0 WNW 28 39 15 21 1021.2 1021.2 0.0
25/12:30pm 19.9 15.5 11.7 59 4.5 WNW 26 35 14 19 1021.6 1021.6 0.0
25/12:00pm 19.3 14.6 12.1 63 4.0 WNW 28 43 15 23 1021.9 1021.9 0.0
25/11:30am 18.0 14.0 11.8 67 3.4 WNW 24 30 13 16 1022.3 1022.3 0.0
25/11:00am 17.2 14.0 11.9 71 2.9 NW 20 28 11 15 1022.5 1022.5 0.0
25/10:30am 16.2 14.3 12.9 81 1.8 NNW 15 20 8 11 1022.5 1022.5 0.0
25/10:00am 13.5 12.1 13.5 100 0.0 NNW 13 19 7 10 1022.4 1022.4 0.0
25/09:30am 12.0 10.5 12.0 100 0.0 N 11 13 6 7 1022.5 1022.5 0.0
25/09:00am 10.8 9.7 10.8 100 0.0 NW 7 11 4 6 1022.5 1022.5 0.2
25/08:30am 10.3 9.1 10.3 100 0.0 NNW 7 11 4 6 1022.2 1022.2 0.2
25/08:00am 9.9 8.2 9.9 100 0.0 N 9 11 5 6 1021.8 1021.8 0.2
25/07:30am 10.1 8.5 10.1 100 0.0 NNE 9 13 5 7 1021.7 1021.7 0.2
25/07:00am 9.8 8.1 9.8 100 0.0 N 9 13 5 7 1021.3 1021.3 0.2
25/06:30am 9.9 8.6 9.9 100 0.0 N 7 13 4 7 1021.4 1021.4 0.2
25/06:00am 10.7 9.2 10.7 100 0.0 N 9 15 5 8 1021.2 1021.2 0.0
25/05:30am 10.7 8.5 10.7 100 0.0 N 13 20 7 11 1020.9 1020.9 0.0
25/05:00am 10.7 8.1 10.7 100 0.0 N 15 19 8 10 1021.2 1021.2 0.0
25/04:30am 10.9 8.7 10.9 100 0.0 N 13 19 7 10 1021.0 1021.0 0.0
25/04:00am 11.3 9.2 11.3 100 0.0 N 13 17 7 9 1020.8 1020.8 0.0
25/03:30am 11.3 9.6 11.3 100 0.0 N 11 15 6 8 1021.0 1021.0 0.0
25/03:00am 11.2 9.1 11.2 100 0.0 N 13 17 7 9 1021.1 1021.1 0.0
25/02:30am 10.6 9.1 10.6 100 0.0 NNE 9 11 5 6 1020.9 1020.9 0.0
25/02:00am 9.3 8.0 9.3 100 0.0 NNE 6 7 3 4 1020.9 1020.9 0.0
25/01:30am 9.9 8.8 9.9 100 0.0 NE 6 7 3 4 1020.9 1020.9 0.0
25/01:00am 10.1 8.8 10.1 100 0.0 NE 7 7 4 4 1021.2 1021.2 0.0
25/12:30am 10.1 8.5 10.1 100 0.0 NNE 9 11 5 6 1021.4 1021.4 0.0
25/12:00am 8.9 6.6 8.9 100 0.0 NE 11 13 6 7 1021.6 1021.6 0.0
 
Date/Time
CST
Temp
°C
App
Temp
°C
Dew
Point
°C
Rel
Hum
%
Delta-T
°C
Wind Press
QNH
hPa
Press
MSL
hPa
Rain since
9am
mm
Dir  Spd
km/h
Gust
km/h
Spd
kts
Gust
kts
24/11:30pm 8.6 6.6 8.6 100 0.0 NE 9 11 5 6 1021.7 1021.7 0.0
24/11:00pm 9.0 6.7 9.0 100 0.0 NE 11 11 6 6 1021.7 1021.7 0.0
24/10:30pm 9.1 6.8 9.1 100 0.0 NNE 11 11 6 6 1022.0 1022.0 0.0
24/10:00pm 8.7 6.7 8.6 99 0.0 NNE 9 9 5 5 1022.1 1022.1 0.0
24/09:30pm 9.2 7.3 9.1 99 0.0 NNE 9 11 5 6 1022.1 1022.1 0.0
24/09:00pm 9.2 7.2 8.7 97 0.2 NNE 9 11 5 6 1021.9 1021.9 0.0
24/08:30pm 8.6 6.3 7.5 93 0.5 NNE 9 9 5 5 1022.0 1022.0 0.0
24/08:00pm 10.4 10.2 9.2 92 0.6 CALM 0 0 0 0 1021.9 1021.9 0.0
24/07:30pm 12.0 10.4 10.2 89 0.9 NNW 9 11 5 6 1021.6 1021.6 0.0
24/07:00pm 14.3 12.9 12.2 87 1.1 NW 11 13 6 7 1021.5 1021.5 0.0
24/06:30pm 14.2 13.0 11.5 84 1.4 NW 9 11 5 6 1021.5 1021.5 0.0
24/06:00pm 14.0 12.5 10.4 79 1.9 WNW 9 11 5 6 1021.4 1021.4 0.0
24/05:30pm 15.8 14.0 11.0 73 2.6 NW 11 15 6 8 1021.3 1021.3 0.0
24/05:00pm 17.6 15.2 11.4 67 3.4 WNW 15 19 8 10 1021.1 1021.1 0.0
24/04:30pm 17.4 14.4 11.9 70 3.0 NW 19 28 10 15 1021.0 1021.0 0.0
24/04:00pm 18.6 15.0 10.4 59 4.4 W 20 28 11 15 1021.0 1021.0 0.0
24/03:30pm 19.0 15.8 11.8 63 4.0 WNW 20 26 11 14 1021.1 1021.1 0.0
24/03:00pm 17.9 15.2 12.8 72 2.8 W 19 26 10 14 1021.1 1021.1 0.0
24/02:30pm 18.5 13.4 13.1 71 3.0 WSW 32 39 17 21 1020.8 1020.8 0.0
24/02:10pm 17.9 13.3 12.4 70 3.1 W 28 46 15 25 1020.7 1020.7 0.0
24/02:00pm 19.8 15.5 10.8 56 4.9 W 24 32 13 17 1020.6 1020.6 0.0
24/01:30pm 20.0 15.2 10.4 54 5.2 W 26 33 14 18 1020.8 1020.8 0.0
24/01:00pm 19.3 13.8 10.6 57 4.7 W 30 39 16 21 1021.0 1021.0 0.0
24/12:30pm 18.6 13.4 11.7 64 3.8 W 30 39 16 21 1021.4 1021.4 0.0
24/12:00pm 18.4 13.2 11.7 65 3.7 W 30 35 16 19 1021.5 1021.5 0.0
24/11:30am 17.8 13.5 12.0 69 3.2 W 26 37 14 20 1021.7 1021.7 0.0
24/11:00am 18.2 13.8 11.7 66 3.6 W 26 30 14 16 1021.9 1021.9 0.0
24/10:30am 17.2 13.8 12.5 74 2.6 W 22 28 12 15 1022.1 1022.1 0.0
24/10:00am 17.2 15.3 13.1 77 2.3 WNW 15 24 8 13 1021.9 1021.9 0.0

Other Formats:

Comma delimited format used in spreadsheet applications
http://www.bom.gov.au/fwo/IDS60801/IDS60801.95663.axf

JavaScript Object Notation format (JSON) in row-major order
http://www.bom.gov.au/fwo/IDS60801/IDS60801.95663.json